sensor_id;sensor_type;location;lat;lon;timestamp;temperature;humidity
71128;SHT30;59249;59.736;30.568;2023-01-26T00:00:15;3.53;92.30
71128;SHT30;59249;59.736;30.568;2023-01-26T00:02:44;3.64;92.30
71128;SHT30;59249;59.736;30.568;2023-01-26T00:05:12;3.65;92.24
71128;SHT30;59249;59.736;30.568;2023-01-26T00:07:41;3.57;92.10
71128;SHT30;59249;59.736;30.568;2023-01-26T00:10:11;3.53;92.13
71128;SHT30;59249;59.736;30.568;2023-01-26T00:12:41;3.56;92.00
71128;SHT30;59249;59.736;30.568;2023-01-26T00:15:10;3.60;91.94
71128;SHT30;59249;59.736;30.568;2023-01-26T00:17:40;3.50;91.89
71128;SHT30;59249;59.736;30.568;2023-01-26T00:20:10;3.63;91.81
71128;SHT30;59249;59.736;30.568;2023-01-26T00:22:39;3.58;91.73
71128;SHT30;59249;59.736;30.568;2023-01-26T00:25:09;3.58;91.72
71128;SHT30;59249;59.736;30.568;2023-01-26T00:27:39;3.59;91.68
71128;SHT30;59249;59.736;30.568;2023-01-26T00:30:11;3.61;91.76
71128;SHT30;59249;59.736;30.568;2023-01-26T00:32:41;3.64;91.61
71128;SHT30;59249;59.736;30.568;2023-01-26T00:35:10;3.67;91.71
71128;SHT30;59249;59.736;30.568;2023-01-26T00:37:40;3.58;91.75
71128;SHT30;59249;59.736;30.568;2023-01-26T00:40:10;3.58;91.70
71128;SHT30;59249;59.736;30.568;2023-01-26T00:42:39;3.62;91.60
71128;SHT30;59249;59.736;30.568;2023-01-26T00:45:09;3.67;91.69
71128;SHT30;59249;59.736;30.568;2023-01-26T00:47:38;3.72;91.58
71128;SHT30;59249;59.736;30.568;2023-01-26T00:50:09;3.68;91.68
71128;SHT30;59249;59.736;30.568;2023-01-26T00:52:39;3.64;91.50
71128;SHT30;59249;59.736;30.568;2023-01-26T00:55:08;3.70;91.66
71128;SHT30;59249;59.736;30.568;2023-01-26T00:57:36;3.71;91.66
71128;SHT30;59249;59.736;30.568;2023-01-26T01:00:07;3.62;91.61
71128;SHT30;59249;59.736;30.568;2023-01-26T01:02:40;3.63;91.70
71128;SHT30;59249;59.736;30.568;2023-01-26T01:05:11;3.68;91.66
71128;SHT30;59249;59.736;30.568;2023-01-26T01:07:40;3.53;91.77
71128;SHT30;59249;59.736;30.568;2023-01-26T01:10:10;3.63;91.70
71128;SHT30;59249;59.736;30.568;2023-01-26T01:12:39;3.50;91.92
71128;SHT30;59249;59.736;30.568;2023-01-26T01:15:08;3.53;91.89
71128;SHT30;59249;59.736;30.568;2023-01-26T01:17:38;3.66;91.81
71128;SHT30;59249;59.736;30.568;2023-01-26T01:20:11;3.64;91.76
71128;SHT30;59249;59.736;30.568;2023-01-26T01:22:41;3.64;91.60
71128;SHT30;59249;59.736;30.568;2023-01-26T01:25:10;3.62;91.79
71128;SHT30;59249;59.736;30.568;2023-01-26T01:27:39;3.61;91.67
71128;SHT30;59249;59.736;30.568;2023-01-26T01:30:09;3.66;91.69
71128;SHT30;59249;59.736;30.568;2023-01-26T01:32:38;3.66;91.75
71128;SHT30;59249;59.736;30.568;2023-01-26T01:35:07;3.72;91.75
71128;SHT30;59249;59.736;30.568;2023-01-26T01:37:37;3.69;91.73
71128;SHT30;59249;59.736;30.568;2023-01-26T01:40:11;3.58;91.77
71128;SHT30;59249;59.736;30.568;2023-01-26T01:42:46;3.57;91.81
71128;SHT30;59249;59.736;30.568;2023-01-26T01:45:40;3.67;91.75
71128;SHT30;59249;59.736;30.568;2023-01-26T01:48:19;3.64;91.86
71128;SHT30;59249;59.736;30.568;2023-01-26T01:50:50;3.64;91.84
71128;SHT30;59249;59.736;30.568;2023-01-26T01:53:26;3.72;91.73
71128;SHT30;59249;59.736;30.568;2023-01-26T01:56:00;3.67;91.86
71128;SHT30;59249;59.736;30.568;2023-01-26T01:58:34;3.64;91.98
71128;SHT30;59249;59.736;30.568;2023-01-26T02:01:04;3.63;91.98
71128;SHT30;59249;59.736;30.568;2023-01-26T02:03:33;3.56;91.92
71128;SHT30;59249;59.736;30.568;2023-01-26T02:06:08;3.63;91.88
71128;SHT30;59249;59.736;30.568;2023-01-26T02:08:45;3.56;91.81
71128;SHT30;59249;59.736;30.568;2023-01-26T02:11:19;3.65;91.89
71128;SHT30;59249;59.736;30.568;2023-01-26T02:13:48;3.67;91.95
71128;SHT30;59249;59.736;30.568;2023-01-26T02:16:18;3.66;92.00
71128;SHT30;59249;59.736;30.568;2023-01-26T02:18:47;3.65;91.85
71128;SHT30;59249;59.736;30.568;2023-01-26T02:21:19;3.72;91.76
71128;SHT30;59249;59.736;30.568;2023-01-26T02:24:05;3.67;91.69
71128;SHT30;59249;59.736;30.568;2023-01-26T02:26:37;3.65;91.70
71128;SHT30;59249;59.736;30.568;2023-01-26T02:29:09;3.61;91.66
71128;SHT30;59249;59.736;30.568;2023-01-26T02:31:42;3.61;91.67
71128;SHT30;59249;59.736;30.568;2023-01-26T02:34:12;3.64;91.68
71128;SHT30;59249;59.736;30.568;2023-01-26T02:36:40;3.62;91.70
71128;SHT30;59249;59.736;30.568;2023-01-26T02:39:24;3.74;91.63
71128;SHT30;59249;59.736;30.568;2023-01-26T02:41:57;3.67;91.50
71128;SHT30;59249;59.736;30.568;2023-01-26T02:44:43;3.64;91.78
71128;SHT30;59249;59.736;30.568;2023-01-26T02:47:14;3.64;91.66
71128;SHT30;59249;59.736;30.568;2023-01-26T02:49:45;3.65;91.61
71128;SHT30;59249;59.736;30.568;2023-01-26T02:52:15;3.70;91.59
71128;SHT30;59249;59.736;30.568;2023-01-26T02:54:48;3.62;91.78
71128;SHT30;59249;59.736;30.568;2023-01-26T02:57:35;3.62;91.70
71128;SHT30;59249;59.736;30.568;2023-01-26T03:00:10;3.68;91.67
71128;SHT30;59249;59.736;30.568;2023-01-26T03:02:40;3.62;91.81
71128;SHT30;59249;59.736;30.568;2023-01-26T03:05:09;3.61;91.81
71128;SHT30;59249;59.736;30.568;2023-01-26T03:07:39;3.59;91.85
71128;SHT30;59249;59.736;30.568;2023-01-26T03:10:09;3.64;91.79
71128;SHT30;59249;59.736;30.568;2023-01-26T03:12:40;3.63;91.76
71128;SHT30;59249;59.736;30.568;2023-01-26T03:15:10;3.54;91.82
71128;SHT30;59249;59.736;30.568;2023-01-26T03:18:01;3.59;92.05
71128;SHT30;59249;59.736;30.568;2023-01-26T03:20:50;3.66;91.87
71128;SHT30;59249;59.736;30.568;2023-01-26T03:23:36;3.55;92.04
71128;SHT30;59249;59.736;30.568;2023-01-26T03:26:23;3.60;92.01
71128;SHT30;59249;59.736;30.568;2023-01-26T03:29:11;3.60;92.05
71128;SHT30;59249;59.736;30.568;2023-01-26T03:31:42;3.52;92.00
71128;SHT30;59249;59.736;30.568;2023-01-26T03:34:11;3.52;91.98
71128;SHT30;59249;59.736;30.568;2023-01-26T03:36:40;3.54;92.02
71128;SHT30;59249;59.736;30.568;2023-01-26T03:39:13;3.59;92.16
71128;SHT30;59249;59.736;30.568;2023-01-26T03:41:56;3.55;92.29
71128;SHT30;59249;59.736;30.568;2023-01-26T03:44:44;3.53;92.39
71128;SHT30;59249;59.736;30.568;2023-01-26T03:47:31;3.41;92.69
71128;SHT30;59249;59.736;30.568;2023-01-26T03:50:18;3.44;92.69
71128;SHT30;59249;59.736;30.568;2023-01-26T03:53:13;3.55;92.65
71128;SHT30;59249;59.736;30.568;2023-01-26T03:55:59;3.50;92.69
71128;SHT30;59249;59.736;30.568;2023-01-26T03:58:46;3.44;92.86
71128;SHT30;59249;59.736;30.568;2023-01-26T04:01:17;3.42;92.83
71128;SHT30;59249;59.736;30.568;2023-01-26T04:03:50;3.48;92.73
71128;SHT30;59249;59.736;30.568;2023-01-26T04:06:40;3.39;92.63
71128;SHT30;59249;59.736;30.568;2023-01-26T04:09:27;3.41;92.65
71128;SHT30;59249;59.736;30.568;2023-01-26T04:11:58;3.40;92.51
71128;SHT30;59249;59.736;30.568;2023-01-26T04:14:28;3.41;92.56
71128;SHT30;59249;59.736;30.568;2023-01-26T04:17:18;3.45;92.37
71128;SHT30;59249;59.736;30.568;2023-01-26T04:20:05;3.52;92.21
71128;SHT30;59249;59.736;30.568;2023-01-26T04:22:52;3.44;92.21
71128;SHT30;59249;59.736;30.568;2023-01-26T04:25:22;3.54;92.26
71128;SHT30;59249;59.736;30.568;2023-01-26T04:27:51;3.49;92.21
71128;SHT30;59249;59.736;30.568;2023-01-26T04:30:20;3.53;92.24
71128;SHT30;59249;59.736;30.568;2023-01-26T04:32:51;3.59;92.11
71128;SHT30;59249;59.736;30.568;2023-01-26T04:35:20;3.43;92.15
71128;SHT30;59249;59.736;30.568;2023-01-26T04:37:49;3.57;91.98
71128;SHT30;59249;59.736;30.568;2023-01-26T04:40:17;3.55;92.17
71128;SHT30;59249;59.736;30.568;2023-01-26T04:42:48;3.59;92.10
71128;SHT30;59249;59.736;30.568;2023-01-26T04:45:17;3.46;92.18
71128;SHT30;59249;59.736;30.568;2023-01-26T04:47:46;3.49;92.21
71128;SHT30;59249;59.736;30.568;2023-01-26T04:50:18;3.48;92.41
71128;SHT30;59249;59.736;30.568;2023-01-26T04:52:47;3.58;92.21
71128;SHT30;59249;59.736;30.568;2023-01-26T04:55:16;3.47;92.26
71128;SHT30;59249;59.736;30.568;2023-01-26T04:57:45;3.57;92.28
71128;SHT30;59249;59.736;30.568;2023-01-26T05:00:14;3.53;92.35
71128;SHT30;59249;59.736;30.568;2023-01-26T05:02:43;3.55;92.52
71128;SHT30;59249;59.736;30.568;2023-01-26T05:05:13;3.61;92.38
71128;SHT30;59249;59.736;30.568;2023-01-26T05:07:44;3.55;92.44
71128;SHT30;59249;59.736;30.568;2023-01-26T05:10:18;3.60;92.27
71128;SHT30;59249;59.736;30.568;2023-01-26T05:12:58;3.57;92.35
71128;SHT30;59249;59.736;30.568;2023-01-26T05:15:43;3.53;92.37
71128;SHT30;59249;59.736;30.568;2023-01-26T05:18:19;3.55;92.35
71128;SHT30;59249;59.736;30.568;2023-01-26T05:21:15;3.59;92.22
71128;SHT30;59249;59.736;30.568;2023-01-26T05:23:52;3.54;92.24
71128;SHT30;59249;59.736;30.568;2023-01-26T05:26:27;3.61;92.30
71128;SHT30;59249;59.736;30.568;2023-01-26T05:29:00;3.58;92.33
71128;SHT30;59249;59.736;30.568;2023-01-26T05:31:29;3.52;92.46
71128;SHT30;59249;59.736;30.568;2023-01-26T05:33:58;3.53;92.33
71128;SHT30;59249;59.736;30.568;2023-01-26T05:36:27;3.60;92.25
71128;SHT30;59249;59.736;30.568;2023-01-26T05:38:58;3.55;92.38
71128;SHT30;59249;59.736;30.568;2023-01-26T05:41:27;3.62;92.26
71128;SHT30;59249;59.736;30.568;2023-01-26T05:44:22;3.69;92.31
71128;SHT30;59249;59.736;30.568;2023-01-26T05:46:57;3.63;92.42
71128;SHT30;59249;59.736;30.568;2023-01-26T05:49:26;3.54;92.49
71128;SHT30;59249;59.736;30.568;2023-01-26T05:51:55;3.57;92.48
71128;SHT30;59249;59.736;30.568;2023-01-26T05:54:26;3.60;92.45
71128;SHT30;59249;59.736;30.568;2023-01-26T05:56:55;3.55;92.59
71128;SHT30;59249;59.736;30.568;2023-01-26T05:59:26;3.56;92.54
71128;SHT30;59249;59.736;30.568;2023-01-26T06:01:55;3.60;92.52
71128;SHT30;59249;59.736;30.568;2023-01-26T06:04:25;3.55;92.44
71128;SHT30;59249;59.736;30.568;2023-01-26T06:06:58;3.50;92.50
71128;SHT30;59249;59.736;30.568;2023-01-26T06:09:32;3.54;92.52
71128;SHT30;59249;59.736;30.568;2023-01-26T06:12:17;3.45;92.58
71128;SHT30;59249;59.736;30.568;2023-01-26T06:15:08;3.51;92.43
71128;SHT30;59249;59.736;30.568;2023-01-26T06:17:42;3.52;92.34
71128;SHT30;59249;59.736;30.568;2023-01-26T06:20:13;3.54;92.33
71128;SHT30;59249;59.736;30.568;2023-01-26T06:22:50;3.48;92.36
71128;SHT30;59249;59.736;30.568;2023-01-26T06:25:20;3.53;92.32
71128;SHT30;59249;59.736;30.568;2023-01-26T06:27:49;3.46;92.38
71128;SHT30;59249;59.736;30.568;2023-01-26T06:30:25;3.55;92.22
71128;SHT30;59249;59.736;30.568;2023-01-26T06:32:58;3.54;92.17
71128;SHT30;59249;59.736;30.568;2023-01-26T06:35:28;3.53;92.04
71128;SHT30;59249;59.736;30.568;2023-01-26T06:38:00;3.52;92.10
71128;SHT30;59249;59.736;30.568;2023-01-26T06:40:31;3.55;91.84
71128;SHT30;59249;59.736;30.568;2023-01-26T06:43:01;3.52;91.81
71128;SHT30;59249;59.736;30.568;2023-01-26T06:45:31;3.50;91.76
71128;SHT30;59249;59.736;30.568;2023-01-26T06:48:00;3.57;91.72
71128;SHT30;59249;59.736;30.568;2023-01-26T06:50:32;3.46;91.80
71128;SHT30;59249;59.736;30.568;2023-01-26T06:53:29;3.39;91.76
71128;SHT30;59249;59.736;30.568;2023-01-26T06:56:21;3.42;91.66
71128;SHT30;59249;59.736;30.568;2023-01-26T06:59:04;3.45;91.60
71128;SHT30;59249;59.736;30.568;2023-01-26T07:01:57;3.44;91.58
71128;SHT30;59249;59.736;30.568;2023-01-26T07:04:26;3.50;91.51
71128;SHT30;59249;59.736;30.568;2023-01-26T07:06:55;3.47;91.59
71128;SHT30;59249;59.736;30.568;2023-01-26T07:09:24;3.50;91.53
71128;SHT30;59249;59.736;30.568;2023-01-26T07:11:54;3.58;91.58
71128;SHT30;59249;59.736;30.568;2023-01-26T07:14:23;3.44;91.53
71128;SHT30;59249;59.736;30.568;2023-01-26T07:16:51;3.45;91.43
71128;SHT30;59249;59.736;30.568;2023-01-26T07:19:20;3.53;91.39
71128;SHT30;59249;59.736;30.568;2023-01-26T07:21:49;3.43;91.37
71128;SHT30;59249;59.736;30.568;2023-01-26T07:24:18;3.49;91.20
71128;SHT30;59249;59.736;30.568;2023-01-26T07:26:48;3.55;91.07
71128;SHT30;59249;59.736;30.568;2023-01-26T07:29:18;3.53;90.96
71128;SHT30;59249;59.736;30.568;2023-01-26T07:31:47;3.54;91.05
71128;SHT30;59249;59.736;30.568;2023-01-26T07:34:16;3.55;90.86
71128;SHT30;59249;59.736;30.568;2023-01-26T07:36:44;3.57;90.82
71128;SHT30;59249;59.736;30.568;2023-01-26T07:39:13;3.55;90.70
71128;SHT30;59249;59.736;30.568;2023-01-26T07:41:42;3.60;90.75
71128;SHT30;59249;59.736;30.568;2023-01-26T07:44:44;3.58;90.69
71128;SHT30;59249;59.736;30.568;2023-01-26T07:47:13;3.44;90.58
71128;SHT30;59249;59.736;30.568;2023-01-26T07:49:42;3.44;90.70
71128;SHT30;59249;59.736;30.568;2023-01-26T07:52:10;3.50;90.68
71128;SHT30;59249;59.736;30.568;2023-01-26T07:54:39;3.57;90.67
71128;SHT30;59249;59.736;30.568;2023-01-26T07:57:08;3.53;90.59
71128;SHT30;59249;59.736;30.568;2023-01-26T07:59:36;3.44;90.56
71128;SHT30;59249;59.736;30.568;2023-01-26T08:02:08;3.64;90.63
71128;SHT30;59249;59.736;30.568;2023-01-26T08:04:37;3.53;90.59
71128;SHT30;59249;59.736;30.568;2023-01-26T08:07:06;3.54;90.51
71128;SHT30;59249;59.736;30.568;2023-01-26T08:09:35;3.60;90.41
71128;SHT30;59249;59.736;30.568;2023-01-26T08:12:04;3.51;90.42
71128;SHT30;59249;59.736;30.568;2023-01-26T08:14:33;3.58;90.49
71128;SHT30;59249;59.736;30.568;2023-01-26T08:17:14;3.62;90.45
71128;SHT30;59249;59.736;30.568;2023-01-26T08:19:44;3.63;90.27
71128;SHT30;59249;59.736;30.568;2023-01-26T08:22:13;3.60;90.27
71128;SHT30;59249;59.736;30.568;2023-01-26T08:24:43;3.54;90.32
71128;SHT30;59249;59.736;30.568;2023-01-26T08:27:12;3.64;90.17
71128;SHT30;59249;59.736;30.568;2023-01-26T08:29:42;3.61;90.20
71128;SHT30;59249;59.736;30.568;2023-01-26T08:32:11;3.59;90.34
71128;SHT30;59249;59.736;30.568;2023-01-26T08:34:42;3.58;90.15
71128;SHT30;59249;59.736;30.568;2023-01-26T08:37:11;3.60;90.33
71128;SHT30;59249;59.736;30.568;2023-01-26T08:39:40;3.63;90.31
71128;SHT30;59249;59.736;30.568;2023-01-26T08:42:09;3.54;90.28
71128;SHT30;59249;59.736;30.568;2023-01-26T08:44:37;3.51;90.25
71128;SHT30;59249;59.736;30.568;2023-01-26T08:47:06;3.56;90.43
71128;SHT30;59249;59.736;30.568;2023-01-26T08:49:34;3.63;90.32
71128;SHT30;59249;59.736;30.568;2023-01-26T08:52:05;3.55;90.31
71128;SHT30;59249;59.736;30.568;2023-01-26T08:54:33;3.69;90.31
71128;SHT30;59249;59.736;30.568;2023-01-26T08:57:02;3.51;90.37
71128;SHT30;59249;59.736;30.568;2023-01-26T08:59:31;3.53;90.41
71128;SHT30;59249;59.736;30.568;2023-01-26T09:01:59;3.63;90.40
71128;SHT30;59249;59.736;30.568;2023-01-26T09:04:28;3.59;90.28
71128;SHT30;59249;59.736;30.568;2023-01-26T09:06:57;3.60;90.28
71128;SHT30;59249;59.736;30.568;2023-01-26T09:09:27;3.64;90.34
71128;SHT30;59249;59.736;30.568;2023-01-26T09:11:56;3.52;90.22
71128;SHT30;59249;59.736;30.568;2023-01-26T09:14:25;3.55;90.22
71128;SHT30;59249;59.736;30.568;2023-01-26T09:16:55;3.45;90.36
71128;SHT30;59249;59.736;30.568;2023-01-26T09:19:24;3.53;90.35
71128;SHT30;59249;59.736;30.568;2023-01-26T09:21:53;3.46;90.33
71128;SHT30;59249;59.736;30.568;2023-01-26T09:24:21;3.41;90.40
71128;SHT30;59249;59.736;30.568;2023-01-26T09:26:52;3.41;90.29
71128;SHT30;59249;59.736;30.568;2023-01-26T09:29:21;3.42;90.25
71128;SHT30;59249;59.736;30.568;2023-01-26T09:31:49;3.46;90.29
71128;SHT30;59249;59.736;30.568;2023-01-26T09:34:18;3.45;90.22
71128;SHT30;59249;59.736;30.568;2023-01-26T09:36:47;3.48;90.28
71128;SHT30;59249;59.736;30.568;2023-01-26T09:39:16;3.45;90.06
71128;SHT30;59249;59.736;30.568;2023-01-26T09:42:15;3.37;90.17
71128;SHT30;59249;59.736;30.568;2023-01-26T09:45:01;3.39;90.30
71128;SHT30;59249;59.736;30.568;2023-01-26T09:47:50;3.37;90.30
71128;SHT30;59249;59.736;30.568;2023-01-26T09:50:26;3.39;90.26
71128;SHT30;59249;59.736;30.568;2023-01-26T09:53:02;3.37;90.33
71128;SHT30;59249;59.736;30.568;2023-01-26T09:55:31;3.35;90.34
71128;SHT30;59249;59.736;30.568;2023-01-26T09:58:08;3.30;90.41
71128;SHT30;59249;59.736;30.568;2023-01-26T10:00:46;3.32;90.50
71128;SHT30;59249;59.736;30.568;2023-01-26T10:03:25;3.30;90.54
71128;SHT30;59249;59.736;30.568;2023-01-26T10:06:04;3.20;90.58
71128;SHT30;59249;59.736;30.568;2023-01-26T10:09:06;3.21;90.77
71128;SHT30;59249;59.736;30.568;2023-01-26T10:11:43;3.20;90.82
71128;SHT30;59249;59.736;30.568;2023-01-26T10:14:22;3.30;90.85
71128;SHT30;59249;59.736;30.568;2023-01-26T10:16:58;3.26;90.77
71128;SHT30;59249;59.736;30.568;2023-01-26T10:19:33;3.33;90.68
71128;SHT30;59249;59.736;30.568;2023-01-26T10:22:11;3.35;90.66
71128;SHT30;59249;59.736;30.568;2023-01-26T10:24:41;3.39;90.54
71128;SHT30;59249;59.736;30.568;2023-01-26T10:27:12;3.35;90.69
71128;SHT30;59249;59.736;30.568;2023-01-26T10:29:42;3.44;90.73
71128;SHT30;59249;59.736;30.568;2023-01-26T10:32:13;3.39;90.79
71128;SHT30;59249;59.736;30.568;2023-01-26T10:34:44;3.41;90.81
71128;SHT30;59249;59.736;30.568;2023-01-26T10:37:20;3.48;90.83
71128;SHT30;59249;59.736;30.568;2023-01-26T10:40:00;3.46;90.84
71128;SHT30;59249;59.736;30.568;2023-01-26T10:42:34;3.50;90.72
71128;SHT30;59249;59.736;30.568;2023-01-26T10:45:25;3.48;90.67
71128;SHT30;59249;59.736;30.568;2023-01-26T10:48:04;3.35;90.87
71128;SHT30;59249;59.736;30.568;2023-01-26T10:50:35;3.46;90.94
71128;SHT30;59249;59.736;30.568;2023-01-26T10:53:04;3.55;91.00
71128;SHT30;59249;59.736;30.568;2023-01-26T10:55:33;3.58;90.87
71128;SHT30;59249;59.736;30.568;2023-01-26T10:58:03;3.47;90.85
71128;SHT30;59249;59.736;30.568;2023-01-26T11:00:34;3.47;90.96
71128;SHT30;59249;59.736;30.568;2023-01-26T11:03:16;3.46;91.01
71128;SHT30;59249;59.736;30.568;2023-01-26T11:06:05;3.43;90.91
71128;SHT30;59249;59.736;30.568;2023-01-26T11:08:37;3.48;91.05
71128;SHT30;59249;59.736;30.568;2023-01-26T11:11:23;3.50;91.00
71128;SHT30;59249;59.736;30.568;2023-01-26T11:14:11;3.48;91.01
71128;SHT30;59249;59.736;30.568;2023-01-26T11:16:49;3.54;90.96
71128;SHT30;59249;59.736;30.568;2023-01-26T11:20:00;3.57;90.97
71128;SHT30;59249;59.736;30.568;2023-01-26T11:22:37;3.48;90.86
71128;SHT30;59249;59.736;30.568;2023-01-26T11:25:21;3.53;90.80
71128;SHT30;59249;59.736;30.568;2023-01-26T11:28:20;3.45;90.82
71128;SHT30;59249;59.736;30.568;2023-01-26T11:31:16;3.46;90.80
71128;SHT30;59249;59.736;30.568;2023-01-26T11:34:02;3.46;90.96
71128;SHT30;59249;59.736;30.568;2023-01-26T11:36:47;3.39;90.82
71128;SHT30;59249;59.736;30.568;2023-01-26T11:39:27;3.44;90.80
71128;SHT30;59249;59.736;30.568;2023-01-26T11:42:15;3.43;90.74
71128;SHT30;59249;59.736;30.568;2023-01-26T11:45:00;3.48;90.78
71128;SHT30;59249;59.736;30.568;2023-01-26T11:47:46;3.40;90.68
71128;SHT30;59249;59.736;30.568;2023-01-26T11:50:33;3.31;90.81
71128;SHT30;59249;59.736;30.568;2023-01-26T11:56:33;3.44;90.62
71128;SHT30;59249;59.736;30.568;2023-01-26T11:59:09;3.38;90.74
71128;SHT30;59249;59.736;30.568;2023-01-26T12:01:44;3.38;90.89
71128;SHT30;59249;59.736;30.568;2023-01-26T12:04:20;3.44;90.85
71128;SHT30;59249;59.736;30.568;2023-01-26T12:06:56;3.48;90.76
71128;SHT30;59249;59.736;30.568;2023-01-26T12:09:34;3.46;90.78
71128;SHT30;59249;59.736;30.568;2023-01-26T12:12:13;3.48;90.68
71128;SHT30;59249;59.736;30.568;2023-01-26T12:14:52;3.52;90.74
71128;SHT30;59249;59.736;30.568;2023-01-26T12:17:35;3.53;90.57
71128;SHT30;59249;59.736;30.568;2023-01-26T12:20:26;3.47;90.50
71128;SHT30;59249;59.736;30.568;2023-01-26T12:23:05;3.47;90.64
71128;SHT30;59249;59.736;30.568;2023-01-26T12:25:35;3.46;90.63
71128;SHT30;59249;59.736;30.568;2023-01-26T12:28:15;3.45;90.62
71128;SHT30;59249;59.736;30.568;2023-01-26T12:30:54;3.53;90.69
71128;SHT30;59249;59.736;30.568;2023-01-26T12:33:25;3.60;90.75
71128;SHT30;59249;59.736;30.568;2023-01-26T12:36:35;3.49;90.62
71128;SHT30;59249;59.736;30.568;2023-01-26T12:39:14;3.52;90.57
71128;SHT30;59249;59.736;30.568;2023-01-26T12:42:08;3.51;90.46
71128;SHT30;59249;59.736;30.568;2023-01-26T12:44:45;3.55;90.40
71128;SHT30;59249;59.736;30.568;2023-01-26T12:47:22;3.52;90.37
71128;SHT30;59249;59.736;30.568;2023-01-26T12:50:00;3.58;90.33
71128;SHT30;59249;59.736;30.568;2023-01-26T12:52:39;3.56;90.35
71128;SHT30;59249;59.736;30.568;2023-01-26T12:55:19;3.44;90.27
71128;SHT30;59249;59.736;30.568;2023-01-26T12:57:52;3.43;90.42
71128;SHT30;59249;59.736;30.568;2023-01-26T13:00:26;3.55;90.22
71128;SHT30;59249;59.736;30.568;2023-01-26T13:03:01;3.53;90.24
71128;SHT30;59249;59.736;30.568;2023-01-26T13:05:34;3.35;90.12
71128;SHT30;59249;59.736;30.568;2023-01-26T13:08:47;3.39;90.30
71128;SHT30;59249;59.736;30.568;2023-01-26T13:11:43;3.36;90.29
71128;SHT30;59249;59.736;30.568;2023-01-26T13:14:37;3.37;90.28
71128;SHT30;59249;59.736;30.568;2023-01-26T13:17:48;3.42;90.35
71128;SHT30;59249;59.736;30.568;2023-01-26T13:20:43;3.28;90.40
71128;SHT30;59249;59.736;30.568;2023-01-26T13:23:49;3.38;90.42
71128;SHT30;59249;59.736;30.568;2023-01-26T13:26:45;3.36;90.28
71128;SHT30;59249;59.736;30.568;2023-01-26T13:29:51;3.45;90.34
71128;SHT30;59249;59.736;30.568;2023-01-26T13:33:04;3.34;90.28
71128;SHT30;59249;59.736;30.568;2023-01-26T13:35:37;3.36;90.34
71128;SHT30;59249;59.736;30.568;2023-01-26T13:38:15;3.32;90.34
71128;SHT30;59249;59.736;30.568;2023-01-26T13:40:47;3.26;90.34
71128;SHT30;59249;59.736;30.568;2023-01-26T13:43:27;3.26;90.37
71128;SHT30;59249;59.736;30.568;2023-01-26T13:46:08;3.31;90.53
71128;SHT30;59249;59.736;30.568;2023-01-26T13:48:44;3.23;90.47
71128;SHT30;59249;59.736;30.568;2023-01-26T13:51:21;3.29;90.36
71128;SHT30;59249;59.736;30.568;2023-01-26T13:53:59;3.29;90.38
71128;SHT30;59249;59.736;30.568;2023-01-26T13:56:31;3.37;90.34
71128;SHT30;59249;59.736;30.568;2023-01-26T13:59:11;3.23;90.30
71128;SHT30;59249;59.736;30.568;2023-01-26T14:01:43;3.30;90.29
71128;SHT30;59249;59.736;30.568;2023-01-26T14:04:15;3.13;90.29
71128;SHT30;59249;59.736;30.568;2023-01-26T14:06:54;3.28;90.40
71128;SHT30;59249;59.736;30.568;2023-01-26T14:09:26;3.28;90.30
71128;SHT30;59249;59.736;30.568;2023-01-26T14:12:00;3.28;90.40
71128;SHT30;59249;59.736;30.568;2023-01-26T14:14:35;3.13;90.16
71128;SHT30;59249;59.736;30.568;2023-01-26T14:17:26;3.19;90.22
71128;SHT30;59249;59.736;30.568;2023-01-26T14:19:58;3.26;90.20
71128;SHT30;59249;59.736;30.568;2023-01-26T14:22:35;3.21;90.17
71128;SHT30;59249;59.736;30.568;2023-01-26T14:25:09;3.24;90.28
71128;SHT30;59249;59.736;30.568;2023-01-26T14:27:40;3.31;90.17
71128;SHT30;59249;59.736;30.568;2023-01-26T14:30:27;3.13;90.22
71128;SHT30;59249;59.736;30.568;2023-01-26T14:33:03;3.19;90.17
71128;SHT30;59249;59.736;30.568;2023-01-26T14:35:32;3.12;90.22
71128;SHT30;59249;59.736;30.568;2023-01-26T14:38:16;3.14;90.28
71128;SHT30;59249;59.736;30.568;2023-01-26T14:40:47;3.13;90.30
71128;SHT30;59249;59.736;30.568;2023-01-26T14:43:17;3.20;90.30
71128;SHT30;59249;59.736;30.568;2023-01-26T14:45:54;3.11;90.20
71128;SHT30;59249;59.736;30.568;2023-01-26T14:48:35;3.20;90.25
71128;SHT30;59249;59.736;30.568;2023-01-26T14:51:06;3.07;90.12
71128;SHT30;59249;59.736;30.568;2023-01-26T14:53:49;3.06;90.22
71128;SHT30;59249;59.736;30.568;2023-01-26T14:56:20;2.98;90.38
71128;SHT30;59249;59.736;30.568;2023-01-26T14:58:54;2.95;90.44
71128;SHT30;59249;59.736;30.568;2023-01-26T15:01:26;2.94;90.38
71128;SHT30;59249;59.736;30.568;2023-01-26T15:04:02;3.07;90.44
71128;SHT30;59249;59.736;30.568;2023-01-26T15:06:35;2.98;90.46
71128;SHT30;59249;59.736;30.568;2023-01-26T15:09:20;2.96;90.64
71128;SHT30;59249;59.736;30.568;2023-01-26T15:11:54;2.97;90.71
71128;SHT30;59249;59.736;30.568;2023-01-26T15:14:48;2.97;90.74
71128;SHT30;59249;59.736;30.568;2023-01-26T15:17:37;2.87;90.74
71128;SHT30;59249;59.736;30.568;2023-01-26T15:20:37;3.02;90.68
71128;SHT30;59249;59.736;30.568;2023-01-26T15:23:26;2.97;90.63
71128;SHT30;59249;59.736;30.568;2023-01-26T15:26:02;2.97;90.68
71128;SHT30;59249;59.736;30.568;2023-01-26T15:28:32;3.02;90.62
71128;SHT30;59249;59.736;30.568;2023-01-26T15:31:01;3.02;90.74
71128;SHT30;59249;59.736;30.568;2023-01-26T15:33:45;2.95;90.74
71128;SHT30;59249;59.736;30.568;2023-01-26T15:36:32;2.95;90.56
71128;SHT30;59249;59.736;30.568;2023-01-26T15:39:11;2.94;90.61
71128;SHT30;59249;59.736;30.568;2023-01-26T15:41:42;3.04;90.47
71128;SHT30;59249;59.736;30.568;2023-01-26T15:44:16;3.02;90.47
71128;SHT30;59249;59.736;30.568;2023-01-26T15:46:52;3.07;90.47
71128;SHT30;59249;59.736;30.568;2023-01-26T15:49:24;3.12;90.53
71128;SHT30;59249;59.736;30.568;2023-01-26T15:51:52;3.10;90.51
71128;SHT30;59249;59.736;30.568;2023-01-26T15:54:21;3.09;90.45
71128;SHT30;59249;59.736;30.568;2023-01-26T15:56:50;3.05;90.57
71128;SHT30;59249;59.736;30.568;2023-01-26T15:59:18;3.09;90.59
71128;SHT30;59249;59.736;30.568;2023-01-26T16:01:47;3.11;90.71
71128;SHT30;59249;59.736;30.568;2023-01-26T16:04:16;3.09;90.68
71128;SHT30;59249;59.736;30.568;2023-01-26T16:06:46;3.07;90.86
71128;SHT30;59249;59.736;30.568;2023-01-26T16:09:14;3.02;90.86
71128;SHT30;59249;59.736;30.568;2023-01-26T16:11:47;3.08;91.00
71128;SHT30;59249;59.736;30.568;2023-01-26T16:14:17;3.04;90.89
71128;SHT30;59249;59.736;30.568;2023-01-26T16:16:46;3.08;90.95
71128;SHT30;59249;59.736;30.568;2023-01-26T16:19:15;3.05;91.06
71128;SHT30;59249;59.736;30.568;2023-01-26T16:22:02;3.17;91.11
71128;SHT30;59249;59.736;30.568;2023-01-26T16:24:31;3.19;91.05